Amesbury, United Kingdom
Current Conditions -  °F | °C
As of 10:50 AM on Monday 20 Oct 2014 (Local Time) from EGDM Reporting Station
Broken Clouds Broken Clouds  
Wind Chill: 57°   Ceiling: 16000
Heat Index: 57°   Visibility: 6mi
Dew Point: 52°   Wind: 15mph
Humidity: 82%   Direction: 230°SW
Pressure: 30.03"   Gusts: NA
Location:  51.17°N, 1.78°W
Report Text: EGDM 200950Z 23013KT 9999 FEW016 BKN160 14/11 Q1017 BLU TEMPO SCT018 WHT
Loading
Personal Weather Stations






























Interactive Weather Map
Tropical Storm Tracking
New forecast layout! Learn more

10-Day Weather Forecast

Advertisements
Track Severe Weather on mobile